Time;durP1;ratioP1;P1;durP2;ratioP2;P2;SDS_P1;SDS_P2;PMS_P1;PMS_P2;Temp;Humidity;BMP_temperature;BMP_pressure;BME280_temperature;BME280_humidity;BME280_pressure;Samples;Min_cycle;Max_cycle;Signal;HPM_P1;HPM_P2
2022/03/22 00:01:29;;;;;;;;;;;20.30;33.50;;;;;;5068730;28;19936;-43
2022/03/22 00:03:56;;;;;;;;;;;20.30;33.50;;;;;;5067182;28;20381;-45
2022/03/22 00:06:23;;;;;;;;;;;20.30;33.50;;;;;;5065838;28;19931;-47
2022/03/22 00:08:50;;;;;;;;;;;20.30;33.50;;;;;;5082455;28;20290;-42
2022/03/22 00:11:17;;;;;;;;;;;20.30;33.50;;;;;;5096594;28;20028;-42
2022/03/22 00:13:43;;;;;;;;;;;20.30;33.50;;;;;;5068967;28;20409;-51
2022/03/22 00:16:12;;;;;;;;;;;20.30;33.50;;;;;;5068809;28;19920;-44
2022/03/22 00:18:40;;;;;;;;;;;20.30;33.50;;;;;;5068522;28;19920;-46
2022/03/22 00:21:07;;;;;;;;;;;20.30;33.50;;;;;;5068841;28;19920;-44
2022/03/22 00:23:37;;;;;;;;;;;20.30;33.50;;;;;;5069302;28;19925;-45
2022/03/22 00:26:04;;;;;;;;;;;20.30;33.50;;;;;;5069143;28;19971;-44
2022/03/22 00:28:31;;;;;;;;;;;20.30;33.50;;;;;;5064020;28;19924;-44
2022/03/22 00:30:58;;;;;;;;;;;20.30;33.50;;;;;;5060348;28;20277;-43
2022/03/22 00:33:25;;;;;;;;;;;20.30;33.50;;;;;;5068676;28;19932;-45
2022/03/22 00:35:53;;;;;;;;;;;20.30;33.50;;;;;;5068765;28;19921;-46
2022/03/22 00:38:20;;;;;;;;;;;20.30;33.50;;;;;;5068279;28;19925;-47
2022/03/22 00:40:49;;;;;;;;;;;20.30;33.50;;;;;;5069361;28;19924;-46
2022/03/22 00:43:16;;;;;;;;;;;20.30;33.50;;;;;;5068033;28;19935;-42
2022/03/22 00:45:43;;;;;;;;;;;20.30;33.50;;;;;;5067913;28;20007;-43
2022/03/22 00:48:12;;;;;;;;;;;20.30;33.50;;;;;;5067918;28;19960;-43
2022/03/22 00:50:40;;;;;;;;;;;20.30;33.50;;;;;;5067314;28;20003;-44
2022/03/22 00:53:12;;;;;;;;;;;20.30;33.50;;;;;;5101949;28;19943;-46
2022/03/22 00:55:40;;;;;;;;;;;20.30;33.50;;;;;;5067108;28;20384;-43
2022/03/22 00:58:06;;;;;;;;;;;20.30;33.50;;;;;;5100363;28;19921;-42
2022/03/22 01:00:33;;;;;;;;;;;20.30;33.50;;;;;;5062665;28;19924;-44
2022/03/22 01:03:00;;;;;;;;;;;20.30;33.50;;;;;;5068970;28;19924;-45
2022/03/22 01:05:28;;;;;;;;;;;20.30;33.50;;;;;;5068139;28;20028;-45
2022/03/22 01:07:56;;;;;;;;;;;20.30;33.50;;;;;;5063405;28;19924;-44
2022/03/22 01:10:27;;;;;;;;;;;20.30;33.50;;;;;;5061044;28;19927;-47
2022/03/22 01:12:54;;;;;;;;;;;20.30;33.50;;;;;;5065097;28;19940;-46
2022/03/22 01:15:22;;;;;;;;;;;20.30;33.50;;;;;;5088967;28;19927;-44
2022/03/22 01:17:50;;;;;;;;;;;20.30;33.50;;;;;;5067775;28;19968;-43
2022/03/22 01:20:19;;;;;;;;;;;20.30;33.50;;;;;;5062699;28;20091;-48
2022/03/22 01:22:47;;;;;;;;;;;20.30;33.50;;;;;;5099926;28;19939;-47
2022/03/22 01:25:14;;;;;;;;;;;20.30;33.50;;;;;;5065703;28;19981;-46
2022/03/22 01:27:46;;;;;;;;;;;20.20;33.40;;;;;;5063728;28;20187;-45
2022/03/22 01:30:13;;;;;;;;;;;20.30;33.50;;;;;;5059927;28;19920;-47
2022/03/22 01:32:40;;;;;;;;;;;20.20;33.40;;;;;;5066120;28;19921;-44
2022/03/22 01:35:08;;;;;;;;;;;20.20;33.40;;;;;;5054817;28;19979;-43
2022/03/22 01:37:34;;;;;;;;;;;20.20;33.40;;;;;;5066570;28;19932;-46
2022/03/22 01:40:01;;;;;;;;;;;20.20;33.30;;;;;;5067112;28;19986;-47
2022/03/22 01:42:28;;;;;;;;;;;20.20;33.40;;;;;;5066188;28;19969;-45
2022/03/22 01:44:56;;;;;;;;;;;20.20;33.40;;;;;;5099985;28;19971;-43
2022/03/22 01:47:23;;;;;;;;;;;20.30;33.40;;;;;;5051088;28;19927;-43
2022/03/22 01:49:51;;;;;;;;;;;20.20;33.30;;;;;;5067200;28;20004;-45
2022/03/22 01:52:19;;;;;;;;;;;20.20;33.30;;;;;;5068797;28;19928;-43
2022/03/22 01:54:46;;;;;;;;;;;20.20;33.30;;;;;;5064707;28;19931;-43
2022/03/22 01:57:12;;;;;;;;;;;20.30;33.40;;;;;;5066342;28;19964;-43
2022/03/22 01:59:39;;;;;;;;;;;20.20;33.30;;;;;;5065639;28;19924;-46
2022/03/22 02:07:36;;;;;;;;;;;20.20;33.30;;;;;;5085245;28;19924;-43
2022/03/22 02:10:03;;;;;;;;;;;20.20;33.30;;;;;;5059019;28;19932;-44
2022/03/22 02:12:29;;;;;;;;;;;20.20;33.30;;;;;;5050195;28;19971;-46
2022/03/22 02:14:56;;;;;;;;;;;20.30;33.40;;;;;;5054160;28;19920;-45
2022/03/22 02:17:24;;;;;;;;;;;20.20;33.30;;;;;;5071942;28;19960;-44
2022/03/22 02:19:51;;;;;;;;;;;20.20;33.60;;;;;;5063566;28;20019;-43
2022/03/22 02:22:18;;;;;;;;;;;20.20;33.30;;;;;;5063973;28;19924;-42
2022/03/22 02:24:46;;;;;;;;;;;20.20;33.30;;;;;;5065624;28;20015;-47
2022/03/22 02:27:13;;;;;;;;;;;20.20;33.20;;;;;;5066834;28;20043;-47
2022/03/22 02:29:40;;;;;;;;;;;20.20;33.20;;;;;;5057956;28;19952;-42
2022/03/22 02:32:13;;;;;;;;;;;20.30;33.30;;;;;;5096233;28;19924;-47
2022/03/22 02:34:42;;;;;;;;;;;20.20;33.20;;;;;;5096836;28;20354;-43
2022/03/22 02:37:09;;;;;;;;;;;20.20;33.20;;;;;;5066134;28;19921;-46
2022/03/22 02:39:37;;;;;;;;;;;20.20;33.20;;;;;;5066016;28;19926;-45
2022/03/22 02:42:07;;;;;;;;;;;20.20;33.20;;;;;;5066346;28;19934;-44
2022/03/22 02:44:34;;;;;;;;;;;20.20;33.20;;;;;;5062460;28;19921;-46
2022/03/22 02:47:07;;;;;;;;;;;20.20;33.20;;;;;;5066555;28;20277;-45
2022/03/22 02:49:35;;;;;;;;;;;20.20;33.20;;;;;;5098784;28;20280;-45
2022/03/22 02:52:04;;;;;;;;;;;20.20;33.20;;;;;;5065562;28;19921;-45
2022/03/22 02:54:31;;;;;;;;;;;20.20;33.20;;;;;;5064895;28;20003;-45
2022/03/22 02:56:58;;;;;;;;;;;20.20;33.20;;;;;;5066371;28;20023;-45
2022/03/22 02:59:26;;;;;;;;;;;20.20;33.20;;;;;;5067858;28;19926;-47
2022/03/22 03:01:54;;;;;;;;;;;20.20;33.20;;;;;;5064741;28;19924;-47
2022/03/22 03:04:21;;;;;;;;;;;20.20;33.20;;;;;;5064283;28;19947;-45
2022/03/22 03:06:48;;;;;;;;;;;20.20;33.20;;;;;;5066885;28;19924;-44
2022/03/22 03:09:14;;;;;;;;;;;20.20;33.20;;;;;;5065546;28;19925;-45
2022/03/22 03:11:51;;;;;;;;;;;20.20;33.20;;;;;;5061268;28;20279;-47
2022/03/22 03:17:04;;;;;;;;;;;20.20;33.20;;;;;;5091711;28;20281;-45
2022/03/22 03:19:30;;;;;;;;;;;20.20;33.20;;;;;;5097976;28;19931;-41
2022/03/22 03:21:57;;;;;;;;;;;20.20;33.20;;;;;;5053862;28;19970;-47
2022/03/22 03:24:27;;;;;;;;;;;20.20;33.20;;;;;;5063608;28;20034;-47
2022/03/22 03:26:53;;;;;;;;;;;20.20;33.20;;;;;;5063293;28;19933;-43
2022/03/22 03:29:20;;;;;;;;;;;20.20;33.20;;;;;;5065978;28;20448;-46
2022/03/22 03:31:49;;;;;;;;;;;20.20;33.20;;;;;;5065851;28;19970;-44
2022/03/22 03:34:17;;;;;;;;;;;20.20;33.20;;;;;;5066824;28;19928;-45
2022/03/22 03:36:44;;;;;;;;;;;20.20;33.20;;;;;;5063744;28;19936;-45
2022/03/22 03:39:21;;;;;;;;;;;20.20;33.20;;;;;;5098889;28;19974;-42
2022/03/22 03:41:57;;;;;;;;;;;20.20;33.10;;;;;;5062365;28;20371;-42
2022/03/22 03:47:09;;;;;;;;;;;20.20;33.10;;;;;;5057074;28;19935;-45
2022/03/22 03:49:37;;;;;;;;;;;20.20;33.10;;;;;;5064537;28;19931;-43
2022/03/22 03:52:04;;;;;;;;;;;20.20;33.10;;;;;;5065213;28;19932;-46
2022/03/22 03:54:31;;;;;;;;;;;20.20;33.20;;;;;;5054319;28;19924;-44
2022/03/22 03:56:58;;;;;;;;;;;20.20;33.10;;;;;;5098512;28;19986;-47
2022/03/22 03:59:25;;;;;;;;;;;20.20;33.10;;;;;;5064011;28;19920;-44
2022/03/22 04:01:54;;;;;;;;;;;20.20;33.10;;;;;;5064837;28;20419;-45
2022/03/22 04:04:21;;;;;;;;;;;20.20;33.10;;;;;;5063047;28;20270;-43
2022/03/22 04:06:50;;;;;;;;;;;20.20;33.10;;;;;;5065791;28;19928;-44
2022/03/22 04:09:17;;;;;;;;;;;20.20;33.10;;;;;;5063306;28;20250;-48
2022/03/22 04:11:44;;;;;;;;;;;20.20;33.10;;;;;;5062304;28;19924;-44
2022/03/22 04:14:11;;;;;;;;;;;20.20;33.10;;;;;;5063374;28;19924;-45
2022/03/22 04:16:37;;;;;;;;;;;20.20;33.10;;;;;;5064593;28;19936;-43
2022/03/22 04:19:05;;;;;;;;;;;20.20;33.00;;;;;;5064821;28;19927;-43
2022/03/22 04:21:33;;;;;;;;;;;20.20;33.10;;;;;;5063429;28;19929;-46
2022/03/22 04:24:02;;;;;;;;;;;20.20;33.10;;;;;;5058160;28;20364;-44
2022/03/22 04:26:29;;;;;;;;;;;20.20;33.00;;;;;;5062609;28;20400;-50
2022/03/22 04:34:39;;;;;;;;;;;20.20;33.00;;;;;;5026096;28;19959;-47
2022/03/22 04:37:10;;;;;;;;;;;20.20;33.00;;;;;;5056217;28;20304;-43
2022/03/22 04:39:39;;;;;;;;;;;20.20;33.00;;;;;;5067837;28;19920;-42
2022/03/22 04:42:09;;;;;;;;;;;20.20;33.00;;;;;;5068143;28;20331;-42
2022/03/22 04:44:36;;;;;;;;;;;20.20;33.00;;;;;;5059476;28;19921;-45
2022/03/22 04:47:03;;;;;;;;;;;20.20;33.00;;;;;;5090144;28;20019;-43
2022/03/22 04:49:30;;;;;;;;;;;20.20;33.00;;;;;;5067012;28;19990;-45
2022/03/22 04:57:26;;;;;;;;;;;20.20;33.00;;;;;;5089435;28;19995;-42
2022/03/22 04:59:56;;;;;;;;;;;20.10;32.90;;;;;;5066921;28;20337;-43
2022/03/22 05:02:23;;;;;;;;;;;20.20;33.00;;;;;;5064381;28;20014;-42
2022/03/22 05:04:50;;;;;;;;;;;20.20;33.00;;;;;;5062855;28;20353;-43
2022/03/22 05:07:16;;;;;;;;;;;20.20;33.00;;;;;;5066674;28;19963;-43
2022/03/22 05:09:44;;;;;;;;;;;20.20;33.00;;;;;;5099579;28;19974;-49
2022/03/22 05:12:13;;;;;;;;;;;20.10;32.90;;;;;;5097190;28;20020;-43
2022/03/22 05:14:40;;;;;;;;;;;20.20;33.00;;;;;;5062423;28;20019;-44
2022/03/22 05:17:07;;;;;;;;;;;20.10;32.80;;;;;;5049206;28;19982;-43
2022/03/22 05:19:34;;;;;;;;;;;20.20;32.90;;;;;;5092038;28;20355;-43
2022/03/22 05:22:02;;;;;;;;;;;20.10;32.90;;;;;;5098215;28;19982;-43
2022/03/22 05:24:30;;;;;;;;;;;20.20;32.90;;;;;;5066833;28;19932;-43
2022/03/22 05:26:59;;;;;;;;;;;20.20;32.90;;;;;;5064882;28;19978;-43
2022/03/22 05:29:25;;;;;;;;;;;20.10;32.80;;;;;;5064037;28;19943;-43
2022/03/22 05:31:52;;;;;;;;;;;20.10;33.40;;;;;;5072529;28;19920;-42
2022/03/22 05:34:19;;;;;;;;;;;20.10;32.80;;;;;;5062631;28;19990;-47
2022/03/22 05:36:46;;;;;;;;;;;20.10;32.80;;;;;;5065903;28;19931;-46
2022/03/22 05:39:12;;;;;;;;;;;20.10;32.80;;;;;;5063432;28;20027;-43
2022/03/22 05:41:41;;;;;;;;;;;20.10;32.80;;;;;;5063792;28;19960;-44
2022/03/22 05:44:11;;;;;;;;;;;20.20;32.90;;;;;;5066872;28;19990;-43
2022/03/22 05:46:39;;;;;;;;;;;20.10;32.80;;;;;;5063847;28;19936;-41
2022/03/22 05:49:05;;;;;;;;;;;20.10;32.80;;;;;;5064961;28;19958;-43
2022/03/22 05:51:35;;;;;;;;;;;20.10;32.80;;;;;;5055122;28;20021;-42
2022/03/22 05:54:02;;;;;;;;;;;20.10;32.70;;;;;;5057898;28;19924;-42
2022/03/22 05:56:29;;;;;;;;;;;20.10;32.70;;;;;;5064558;28;19925;-46
2022/03/22 05:58:58;;;;;;;;;;;20.20;32.80;;;;;;5100257;28;20369;-46
2022/03/22 06:01:27;;;;;;;;;;;20.10;32.70;;;;;;5097017;28;19947;-43
2022/03/22 06:03:54;;;;;;;;;;;20.10;32.80;;;;;;5065780;28;19920;-44
2022/03/22 06:06:21;;;;;;;;;;;20.10;32.70;;;;;;5064366;28;20316;-47
2022/03/22 06:08:49;;;;;;;;;;;20.10;32.70;;;;;;5064716;28;20011;-42
2022/03/22 06:11:19;;;;;;;;;;;20.10;32.70;;;;;;5064897;28;19924;-44
2022/03/22 06:13:46;;;;;;;;;;;20.10;32.80;;;;;;5053641;28;19931;-43
2022/03/22 06:16:13;;;;;;;;;;;20.20;32.80;;;;;;5065304;28;19920;-47
2022/03/22 06:18:42;;;;;;;;;;;20.20;32.80;;;;;;5062637;28;19952;-45
2022/03/22 06:21:09;;;;;;;;;;;20.10;32.70;;;;;;5062621;28;19936;-45
2022/03/22 06:23:36;;;;;;;;;;;20.10;32.70;;;;;;5068328;28;19956;-43
2022/03/22 06:26:03;;;;;;;;;;;20.10;32.70;;;;;;5066051;28;19992;-45
2022/03/22 06:28:30;;;;;;;;;;;20.20;32.80;;;;;;5065533;28;19921;-45
2022/03/22 06:30:57;;;;;;;;;;;20.10;32.70;;;;;;5065691;28;19999;-44
2022/03/22 06:33:24;;;;;;;;;;;20.20;32.80;;;;;;5064868;28;19920;-43
2022/03/22 06:35:53;;;;;;;;;;;20.10;32.70;;;;;;5065849;28;19927;-43
2022/03/22 06:38:26;;;;;;;;;;;20.10;32.70;;;;;;5099748;28;19924;-44
2022/03/22 06:40:53;;;;;;;;;;;20.10;32.70;;;;;;5065073;28;19927;-43
2022/03/22 06:43:20;;;;;;;;;;;20.10;32.70;;;;;;5066166;28;20516;-48
2022/03/22 06:45:47;;;;;;;;;;;20.20;32.80;;;;;;5062856;28;20031;-42
2022/03/22 06:48:15;;;;;;;;;;;20.20;32.70;;;;;;5064839;28;19954;-42
2022/03/22 06:50:43;;;;;;;;;;;20.10;32.70;;;;;;5062204;28;20411;-44
2022/03/22 06:53:25;;;;;;;;;;;20.20;32.80;;;;;;5064336;28;19920;-44
2022/03/22 06:55:52;;;;;;;;;;;20.10;32.70;;;;;;5058596;28;20008;-42
2022/03/22 06:58:21;;;;;;;;;;;20.10;32.70;;;;;;5062878;28;19928;-42
2022/03/22 07:00:51;;;;;;;;;;;20.20;32.80;;;;;;5058016;28;19921;-44
2022/03/22 07:03:18;;;;;;;;;;;20.10;32.70;;;;;;5063917;28;20281;-42
2022/03/22 07:05:46;;;;;;;;;;;20.10;32.70;;;;;;5062758;28;20014;-44
2022/03/22 07:08:15;;;;;;;;;;;20.10;32.70;;;;;;5059289;28;20011;-43
2022/03/22 07:11:47;;;;;;;;;;;20.10;32.60;;;;;;5063332;28;19971;-44
2022/03/22 07:13:32;;;;;;;;;;;20.10;32.70;;;;;;5057071;28;20262;-43
2022/03/22 07:15:59;;;;;;;;;;;20.10;32.70;;;;;;5091873;28;20397;-42
2022/03/22 07:18:26;;;;;;;;;;;20.10;32.60;;;;;;5059139;28;20307;-44
2022/03/22 07:20:53;;;;;;;;;;;20.10;32.70;;;;;;5062308;28;19933;-43
2022/03/22 07:23:22;;;;;;;;;;;20.10;32.70;;;;;;5063506;28;20096;-46
2022/03/22 07:25:48;;;;;;;;;;;20.10;32.70;;;;;;5058778;28;19938;-43
2022/03/22 07:28:15;;;;;;;;;;;20.10;32.70;;;;;;5059915;28;19921;-43
2022/03/22 07:30:42;;;;;;;;;;;20.10;32.60;;;;;;5059366;28;19971;-42
2022/03/22 07:33:09;;;;;;;;;;;20.10;32.70;;;;;;5065264;28;19920;-44
2022/03/22 07:35:36;;;;;;;;;;;20.10;32.70;;;;;;5061328;28;19968;-43
2022/03/22 07:38:03;;;;;;;;;;;20.10;32.60;;;;;;5061681;28;20031;-44
2022/03/22 07:40:31;;;;;;;;;;;20.10;32.60;;;;;;5059515;28;19931;-46
2022/03/22 07:43:00;;;;;;;;;;;20.10;32.60;;;;;;5061630;28;20163;-42
2022/03/22 07:45:27;;;;;;;;;;;20.10;32.60;;;;;;5064152;28;19990;-45
2022/03/22 07:47:54;;;;;;;;;;;20.10;32.60;;;;;;5061212;28;19925;-45
2022/03/22 07:53:08;;;;;;;;;;;20.10;32.70;;;;;;5047824;28;19932;-42
2022/03/22 07:55:36;;;;;;;;;;;20.10;32.60;;;;;;5061824;28;19935;-44
2022/03/22 07:58:05;;;;;;;;;;;20.10;32.60;;;;;;5063105;28;19920;-44
2022/03/22 08:00:32;;;;;;;;;;;20.10;32.60;;;;;;5064834;28;20293;-43
2022/03/22 08:03:00;;;;;;;;;;;20.10;32.60;;;;;;5058586;28;19920;-43
2022/03/22 08:05:27;;;;;;;;;;;20.10;32.60;;;;;;5090490;28;19932;-44
2022/03/22 08:07:54;;;;;;;;;;;20.20;32.80;;;;;;5084606;28;19921;-49
2022/03/22 08:10:21;;;;;;;;;;;20.10;32.70;;;;;;5067575;28;19928;-45
2022/03/22 08:12:49;;;;;;;;;;;20.10;32.70;;;;;;5062236;28;19932;-49
2022/03/22 08:15:17;;;;;;;;;;;20.20;32.80;;;;;;5061628;28;19921;-46
2022/03/22 08:17:44;;;;;;;;;;;20.20;32.80;;;;;;5069015;28;19947;-48
2022/03/22 08:20:14;;;;;;;;;;;20.20;32.80;;;;;;5067779;28;19968;-43
2022/03/22 08:22:51;;;;;;;;;;;20.20;32.80;;;;;;5067672;28;19930;-45
2022/03/22 08:25:22;;;;;;;;;;;20.20;32.90;;;;;;5069041;28;19990;-45
2022/03/22 08:27:50;;;;;;;;;;;20.20;32.90;;;;;;5061882;28;19925;-45
2022/03/22 08:30:21;;;;;;;;;;;20.20;32.90;;;;;;5062849;28;20082;-47
2022/03/22 08:32:48;;;;;;;;;;;20.20;33.00;;;;;;5059709;28;19926;-43
2022/03/22 08:35:14;;;;;;;;;;;20.20;33.50;;;;;;5067321;28;20270;-42
2022/03/22 08:37:41;;;;;;;;;;;20.20;33.00;;;;;;5060450;28;20357;-46
2022/03/22 08:40:09;;;;;;;;;;;20.20;33.00;;;;;;5063430;28;20246;-46
2022/03/22 08:42:37;;;;;;;;;;;20.20;33.00;;;;;;5069034;28;20327;-44
2022/03/22 08:45:07;;;;;;;;;;;20.30;33.10;;;;;;5063269;28;19982;-45
2022/03/22 08:47:35;;;;;;;;;;;20.30;33.10;;;;;;5068775;28;20016;-45
2022/03/22 08:50:02;;;;;;;;;;;20.30;33.10;;;;;;5062052;28;20408;-42
2022/03/22 08:52:29;;;;;;;;;;;20.30;33.10;;;;;;5070843;28;20012;-42
2022/03/22 08:54:55;;;;;;;;;;;20.30;33.10;;;;;;5061908;28;19978;-43
2022/03/22 08:57:24;;;;;;;;;;;20.30;33.70;;;;;;5061268;28;19927;-44
2022/03/22 08:59:51;;;;;;;;;;;20.30;33.10;;;;;;5065723;28;19931;-43
2022/03/22 09:02:19;;;;;;;;;;;20.30;33.70;;;;;;5063363;28;19924;-46
2022/03/22 09:07:30;;;;;;;;;;;20.30;33.20;;;;;;5061288;28;19921;-43
2022/03/22 09:09:57;;;;;;;;;;;20.30;33.20;;;;;;5062914;28;19920;-43
2022/03/22 09:12:24;;;;;;;;;;;20.30;33.20;;;;;;5063358;28;20280;-45
2022/03/22 09:14:53;;;;;;;;;;;20.30;33.20;;;;;;5065835;28;19931;-42
2022/03/22 09:17:21;;;;;;;;;;;20.40;33.30;;;;;;5062671;28;20223;-46
2022/03/22 09:19:48;;;;;;;;;;;20.40;33.30;;;;;;5063834;28;19935;-45
2022/03/22 09:22:15;;;;;;;;;;;20.40;33.30;;;;;;5061921;28;19924;-42
2022/03/22 09:24:42;;;;;;;;;;;20.40;33.30;;;;;;5062348;28;19928;-46
2022/03/22 09:27:08;;;;;;;;;;;20.40;33.30;;;;;;5063163;28;19928;-42
2022/03/22 09:29:35;;;;;;;;;;;20.40;33.30;;;;;;5093819;28;19970;-43
2022/03/22 09:32:02;;;;;;;;;;;20.40;33.30;;;;;;5063288;28;20007;-42
2022/03/22 09:34:32;;;;;;;;;;;20.40;33.30;;;;;;5063811;28;19921;-42
2022/03/22 09:36:59;;;;;;;;;;;20.40;33.30;;;;;;5063832;28;19966;-50
2022/03/22 09:39:26;;;;;;;;;;;20.40;33.40;;;;;;5067379;28;20043;-57
2022/03/22 09:41:52;;;;;;;;;;;20.40;33.90;;;;;;5062581;28;19920;-56
2022/03/22 09:44:20;;;;;;;;;;;20.40;32.90;;;;;;5061363;28;20367;-48
2022/03/22 09:46:48;;;;;;;;;;;20.40;32.50;;;;;;5059614;28;19939;-54
2022/03/22 09:49:15;;;;;;;;;;;20.40;32.10;;;;;;5059228;28;19924;-49
2022/03/22 09:51:47;;;;;;;;;;;20.40;31.60;;;;;;5063523;28;19963;-52
2022/03/22 09:54:15;;;;;;;;;;;20.30;30.90;;;;;;5050389;28;20266;-48
2022/03/22 09:56:42;;;;;;;;;;;20.30;31.00;;;;;;5062781;28;19929;-56
2022/03/22 09:59:09;;;;;;;;;;;20.30;30.60;;;;;;5061341;28;19946;-47
2022/03/22 10:01:36;;;;;;;;;;;20.20;30.40;;;;;;5062855;28;20150;-52
2022/03/22 10:04:03;;;;;;;;;;;20.20;30.40;;;;;;5056201;28;20041;-51
2022/03/22 10:06:30;;;;;;;;;;;20.20;30.60;;;;;;5072933;28;19951;-51
2022/03/22 10:08:58;;;;;;;;;;;20.20;31.10;;;;;;5060678;28;19920;-51
2022/03/22 10:11:36;;;;;;;;;;;20.10;30.40;;;;;;5103751;27;20306;-52
2022/03/22 10:14:03;;;;;;;;;;;20.10;30.30;;;;;;5058615;28;19924;-51
2022/03/22 10:16:29;;;;;;;;;;;20.10;30.30;;;;;;5056069;28;20263;-50
2022/03/22 10:18:56;;;;;;;;;;;20.10;30.40;;;;;;5061974;28;19952;-59
2022/03/22 10:21:23;;;;;;;;;;;20.10;30.40;;;;;;5093583;28;19931;-52
2022/03/22 10:23:50;;;;;;;;;;;20.10;30.50;;;;;;5060223;28;19924;-49
2022/03/22 10:26:19;;;;;;;;;;;20.10;30.20;;;;;;5060572;28;20373;-56
2022/03/22 10:28:49;;;;;;;;;;;20.10;30.30;;;;;;5055129;28;19975;-47
2022/03/22 10:31:16;;;;;;;;;;;20.10;30.40;;;;;;5060474;28;20262;-50
2022/03/22 10:33:49;;;;;;;;;;;20.10;30.50;;;;;;5060477;28;20258;-52
2022/03/22 10:36:16;;;;;;;;;;;20.10;30.40;;;;;;5050312;28;20293;-52
2022/03/22 10:38:52;;;;;;;;;;;20.10;30.40;;;;;;5060638;28;20347;-52
2022/03/22 10:41:25;;;;;;;;;;;20.10;30.40;;;;;;5060389;28;19921;-57
2022/03/22 10:44:01;;;;;;;;;;;20.00;30.30;;;;;;5055689;28;20007;-54
2022/03/22 10:46:30;;;;;;;;;;;20.10;30.20;;;;;;5060499;28;20269;-52
2022/03/22 10:49:01;;;;;;;;;;;20.00;30.20;;;;;;5061440;28;19920;-50
2022/03/22 10:51:32;;;;;;;;;;;20.00;30.00;;;;;;5057607;28;20019;-48
2022/03/22 10:53:58;;;;;;;;;;;20.00;29.90;;;;;;5089977;28;20161;-50
2022/03/22 10:56:27;;;;;;;;;;;20.00;29.90;;;;;;5060927;28;19963;-51
2022/03/22 10:58:54;;;;;;;;;;;20.00;29.90;;;;;;5066140;28;19920;-54
2022/03/22 11:01:21;;;;;;;;;;;20.00;29.80;;;;;;5092015;28;19924;-48
2022/03/22 11:03:48;;;;;;;;;;;20.00;29.70;;;;;;5083660;28;19921;-56
2022/03/22 11:06:14;;;;;;;;;;;20.00;29.80;;;;;;5058675;28;19967;-45
2022/03/22 11:08:41;;;;;;;;;;;20.00;29.80;;;;;;5061607;28;20358;-48
2022/03/22 11:11:08;;;;;;;;;;;20.00;29.90;;;;;;5060067;28;20365;-56
2022/03/22 11:13:36;;;;;;;;;;;20.00;30.00;;;;;;5062168;28;19943;-48
2022/03/22 11:16:03;;;;;;;;;;;20.00;29.90;;;;;;5060345;28;19924;-54
2022/03/22 11:18:30;;;;;;;;;;;20.00;29.70;;;;;;5058659;28;19920;-56
2022/03/22 11:20:57;;;;;;;;;;;19.90;29.50;;;;;;5059725;28;20038;-52
2022/03/22 11:23:25;;;;;;;;;;;19.90;29.40;;;;;;5056151;28;20026;-57
2022/03/22 11:25:52;;;;;;;;;;;19.90;29.40;;;;;;5075137;28;20370;-50
2022/03/22 11:28:19;;;;;;;;;;;19.90;29.50;;;;;;5057219;28;19927;-53
2022/03/22 11:30:47;;;;;;;;;;;19.90;30.00;;;;;;5058981;28;19925;-55
2022/03/22 11:35:59;;;;;;;;;;;19.90;29.70;;;;;;5076203;28;19932;-48
2022/03/22 11:38:36;;;;;;;;;;;19.90;29.90;;;;;;5057507;28;19932;-50
2022/03/22 11:43:48;;;;;;;;;;;19.90;29.80;;;;;;5086779;28;19964;-54
2022/03/22 11:46:16;;;;;;;;;;;20.00;29.90;;;;;;5065069;28;20273;-46
2022/03/22 11:48:43;;;;;;;;;;;19.90;29.70;;;;;;5065423;28;19920;-48
2022/03/22 11:51:10;;;;;;;;;;;19.90;29.70;;;;;;5060396;28;19940;-46
2022/03/22 11:53:44;;;;;;;;;;;19.90;29.90;;;;;;5092276;28;20293;-56
2022/03/22 11:56:10;;;;;;;;;;;19.90;29.30;;;;;;5060121;28;19974;-51
2022/03/22 11:58:37;;;;;;;;;;;19.90;29.30;;;;;;5063688;28;20045;-50
2022/03/22 12:01:04;;;;;;;;;;;19.90;29.40;;;;;;5058313;28;20335;-55
2022/03/22 12:03:33;;;;;;;;;;;19.90;29.40;;;;;;5074774;28;20296;-54
2022/03/22 12:06:09;;;;;;;;;;;19.90;29.40;;;;;;5063938;28;19938;-55
2022/03/22 12:08:36;;;;;;;;;;;19.90;29.10;;;;;;5057849;28;20025;-54
2022/03/22 12:11:02;;;;;;;;;;;19.90;29.00;;;;;;5059533;28;20374;-52
2022/03/22 12:13:30;;;;;;;;;;;19.90;29.00;;;;;;5064355;28;20003;-56
2022/03/22 12:15:57;;;;;;;;;;;19.90;28.60;;;;;;5064119;28;19920;-55
2022/03/22 12:18:27;;;;;;;;;;;19.80;28.00;;;;;;5065470;28;20281;-55
2022/03/22 12:20:57;;;;;;;;;;;19.80;28.00;;;;;;5066523;28;19944;-54
2022/03/22 12:23:24;;;;;;;;;;;19.80;28.00;;;;;;5066883;28;19942;-48
2022/03/22 12:25:51;;;;;;;;;;;19.70;27.70;;;;;;5068393;28;19921;-50
2022/03/22 12:28:18;;;;;;;;;;;19.70;28.00;;;;;;5095330;28;19968;-46
2022/03/22 12:30:45;;;;;;;;;;;19.60;28.10;;;;;;5063694;28;19927;-43
2022/03/22 12:33:14;;;;;;;;;;;19.70;28.40;;;;;;5064746;28;19956;-45
2022/03/22 12:35:40;;;;;;;;;;;19.70;28.70;;;;;;5062706;28;20288;-45
2022/03/22 12:38:08;;;;;;;;;;;19.70;28.90;;;;;;5062204;28;19980;-47
2022/03/22 12:40:36;;;;;;;;;;;19.70;29.00;;;;;;5065202;28;19920;-43
2022/03/22 12:43:03;;;;;;;;;;;19.70;29.10;;;;;;5064017;28;20015;-44
2022/03/22 12:45:31;;;;;;;;;;;19.80;29.30;;;;;;5064767;28;20787;-46
2022/03/22 12:47:58;;;;;;;;;;;19.80;29.40;;;;;;5068697;28;20431;-45
2022/03/22 12:50:25;;;;;;;;;;;19.80;29.40;;;;;;5060106;28;20349;-45
2022/03/22 12:52:52;;;;;;;;;;;19.80;29.50;;;;;;5068186;28;19933;-44
2022/03/22 12:55:21;;;;;;;;;;;19.80;29.50;;;;;;5065611;28;19940;-48
2022/03/22 12:57:48;;;;;;;;;;;19.80;29.50;;;;;;5064641;28;19966;-44
2022/03/22 13:00:24;;;;;;;;;;;19.80;29.60;;;;;;5060756;28;19951;-48
2022/03/22 13:02:51;;;;;;;;;;;19.90;29.60;;;;;;5059523;28;19935;-46
2022/03/22 13:05:23;;;;;;;;;;;19.90;29.60;;;;;;5057558;28;19927;-46
2022/03/22 13:07:49;;;;;;;;;;;19.90;29.70;;;;;;5065666;28;19925;-44
2022/03/22 13:13:02;;;;;;;;;;;19.90;29.70;;;;;;5057754;28;19927;-48
2022/03/22 13:15:29;;;;;;;;;;;19.90;29.80;;;;;;5066616;28;19928;-47
2022/03/22 13:17:56;;;;;;;;;;;19.90;29.90;;;;;;5065156;28;19936;-48
2022/03/22 13:20:24;;;;;;;;;;;20.00;29.90;;;;;;5069507;28;20337;-46
2022/03/22 13:22:51;;;;;;;;;;;20.00;30.00;;;;;;5064209;28;20356;-44
2022/03/22 13:25:19;;;;;;;;;;;20.00;30.00;;;;;;5063492;28;19943;-43
2022/03/22 13:27:52;;;;;;;;;;;20.00;30.00;;;;;;5063721;28;19920;-44
2022/03/22 13:30:21;;;;;;;;;;;20.00;30.00;;;;;;5060461;28;20297;-47
2022/03/22 13:32:47;;;;;;;;;;;20.00;30.00;;;;;;5066004;28;19963;-43
2022/03/22 13:35:14;;;;;;;;;;;20.00;30.00;;;;;;5069042;28;20009;-43
2022/03/22 13:37:48;;;;;;;;;;;20.10;30.00;;;;;;5057986;28;20292;-44
2022/03/22 13:40:15;;;;;;;;;;;20.10;30.10;;;;;;5071256;28;19925;-49
2022/03/22 13:42:55;;;;;;;;;;;20.10;30.10;;;;;;5064610;28;19951;-45
2022/03/22 13:45:23;;;;;;;;;;;20.10;30.10;;;;;;5059737;28;19932;-42
2022/03/22 13:47:51;;;;;;;;;;;20.10;30.10;;;;;;5058457;28;20320;-44
2022/03/22 13:50:19;;;;;;;;;;;20.10;30.10;;;;;;5089902;28;19960;-44
2022/03/22 13:52:47;;;;;;;;;;;20.10;30.20;;;;;;5062426;28;19924;-44
2022/03/22 13:55:14;;;;;;;;;;;20.20;30.30;;;;;;5068610;28;20004;-42
2022/03/22 13:57:42;;;;;;;;;;;20.10;30.20;;;;;;5065187;28;20370;-43
2022/03/22 14:00:09;;;;;;;;;;;20.10;30.20;;;;;;5063797;28;20007;-42
2022/03/22 14:02:37;;;;;;;;;;;20.10;30.20;;;;;;5064416;28;20278;-42
2022/03/22 14:05:04;;;;;;;;;;;20.20;30.30;;;;;;5063660;28;20011;-43
2022/03/22 14:07:31;;;;;;;;;;;20.20;30.40;;;;;;5065098;28;19924;-45
2022/03/22 14:09:58;;;;;;;;;;;20.20;30.40;;;;;;5067460;28;20031;-43
2022/03/22 14:12:25;;;;;;;;;;;20.20;30.40;;;;;;5067458;28;19920;-44
2022/03/22 14:14:52;;;;;;;;;;;20.20;30.40;;;;;;5064264;28;20050;-43
2022/03/22 14:17:18;;;;;;;;;;;20.20;30.40;;;;;;5061320;28;19948;-43
2022/03/22 14:19:47;;;;;;;;;;;20.30;30.40;;;;;;5065842;28;19924;-45
2022/03/22 14:22:13;;;;;;;;;;;20.30;30.40;;;;;;5091163;28;19967;-46
2022/03/22 14:24:40;;;;;;;;;;;20.30;30.50;;;;;;5062709;28;20356;-45
2022/03/22 14:27:07;;;;;;;;;;;20.30;30.50;;;;;;5094103;28;19932;-44
2022/03/22 14:29:34;;;;;;;;;;;20.30;30.50;;;;;;5065154;28;20330;-43
2022/03/22 14:32:01;;;;;;;;;;;20.30;30.60;;;;;;5059677;28;19920;-42
2022/03/22 14:37:14;;;;;;;;;;;20.40;30.70;;;;;;5090218;28;20014;-47
2022/03/22 14:39:41;;;;;;;;;;;20.40;30.80;;;;;;5062725;28;20023;-43
2022/03/22 14:42:10;;;;;;;;;;;20.40;30.80;;;;;;5064340;28;19951;-44
2022/03/22 14:44:37;;;;;;;;;;;20.40;30.80;;;;;;5098401;27;19946;-46
2022/03/22 14:47:04;;;;;;;;;;;20.40;30.90;;;;;;5067261;28;19921;-47
2022/03/22 14:49:31;;;;;;;;;;;20.40;30.90;;;;;;5065741;28;20108;-45
2022/03/22 14:54:44;;;;;;;;;;;20.40;30.90;;;;;;5089574;28;20289;-44
2022/03/22 14:59:57;;;;;;;;;;;20.40;31.00;;;;;;5092601;28;20422;-48
2022/03/22 15:02:26;;;;;;;;;;;20.40;31.00;;;;;;5059169;28;19990;-44
2022/03/22 15:04:53;;;;;;;;;;;20.40;31.00;;;;;;5089503;28;20032;-44